sensor_id;sensor_type;location;lat;lon;timestamp;P1;durP1;ratioP1;P2;durP2;ratioP2
37527;SDS011;23372;52.050;4.810;2023-03-01T00:00:18;23.77;;;13.00;;
37527;SDS011;23372;52.050;4.810;2023-03-01T00:02:44;23.33;;;13.63;;
37527;SDS011;23372;52.050;4.810;2023-03-01T00:05:09;23.63;;;14.23;;
37527;SDS011;23372;52.050;4.810;2023-03-01T00:07:35;24.63;;;14.83;;
37527;SDS011;23372;52.050;4.810;2023-03-01T00:10:01;25.73;;;15.10;;
37527;SDS011;23372;52.050;4.810;2023-03-01T00:12:26;24.20;;;13.63;;
37527;SDS011;23372;52.050;4.810;2023-03-01T00:14:52;25.23;;;15.03;;
37527;SDS011;23372;52.050;4.810;2023-03-01T00:17:18;25.77;;;14.07;;
37527;SDS011;23372;52.050;4.810;2023-03-01T00:19:43;22.43;;;14.57;;
37527;SDS011;23372;52.050;4.810;2023-03-01T00:22:09;22.70;;;13.73;;
37527;SDS011;23372;52.050;4.810;2023-03-01T00:24:34;24.67;;;14.03;;
37527;SDS011;23372;52.050;4.810;2023-03-01T00:27:00;26.27;;;15.27;;
37527;SDS011;23372;52.050;4.810;2023-03-01T00:29:25;28.77;;;14.63;;
37527;SDS011;23372;52.050;4.810;2023-03-01T00:31:51;25.73;;;14.90;;
37527;SDS011;23372;52.050;4.810;2023-03-01T00:34:17;22.40;;;14.00;;
37527;SDS011;23372;52.050;4.810;2023-03-01T00:36:42;27.47;;;16.10;;
37527;SDS011;23372;52.050;4.810;2023-03-01T00:39:10;24.80;;;15.17;;
37527;SDS011;23372;52.050;4.810;2023-03-01T00:41:38;24.53;;;14.13;;
37527;SDS011;23372;52.050;4.810;2023-03-01T00:44:05;29.33;;;16.00;;
37527;SDS011;23372;52.050;4.810;2023-03-01T00:46:30;26.30;;;15.47;;
37527;SDS011;23372;52.050;4.810;2023-03-01T00:48:56;29.33;;;16.33;;
37527;SDS011;23372;52.050;4.810;2023-03-01T00:51:25;30.00;;;16.70;;
37527;SDS011;23372;52.050;4.810;2023-03-01T00:53:53;27.50;;;15.60;;
37527;SDS011;23372;52.050;4.810;2023-03-01T00:56:21;26.93;;;15.37;;
37527;SDS011;23372;52.050;4.810;2023-03-01T00:58:47;27.83;;;16.27;;
37527;SDS011;23372;52.050;4.810;2023-03-01T01:03:47;30.17;;;17.33;;
37527;SDS011;23372;52.050;4.810;2023-03-01T01:06:14;30.40;;;17.27;;
37527;SDS011;23372;52.050;4.810;2023-03-01T01:08:45;28.83;;;16.60;;
37527;SDS011;23372;52.050;4.810;2023-03-01T01:11:12;29.23;;;16.53;;
37527;SDS011;23372;52.050;4.810;2023-03-01T01:13:38;31.83;;;17.83;;
37527;SDS011;23372;52.050;4.810;2023-03-01T01:16:04;31.13;;;17.00;;
37527;SDS011;23372;52.050;4.810;2023-03-01T01:18:30;28.87;;;16.30;;
37527;SDS011;23372;52.050;4.810;2023-03-01T01:20:56;32.20;;;17.70;;
37527;SDS011;23372;52.050;4.810;2023-03-01T01:23:21;32.40;;;17.13;;
37527;SDS011;23372;52.050;4.810;2023-03-01T01:25:47;31.03;;;17.03;;
37527;SDS011;23372;52.050;4.810;2023-03-01T01:28:13;30.60;;;16.97;;
37527;SDS011;23372;52.050;4.810;2023-03-01T01:30:38;37.17;;;19.33;;
37527;SDS011;23372;52.050;4.810;2023-03-01T01:33:04;31.60;;;17.03;;
37527;SDS011;23372;52.050;4.810;2023-03-01T01:35:29;32.47;;;18.00;;
37527;SDS011;23372;52.050;4.810;2023-03-01T01:37:55;36.20;;;18.47;;
37527;SDS011;23372;52.050;4.810;2023-03-01T01:40:20;32.70;;;17.90;;
37527;SDS011;23372;52.050;4.810;2023-03-01T01:42:46;35.40;;;18.57;;
37527;SDS011;23372;52.050;4.810;2023-03-01T01:45:24;34.43;;;18.40;;
37527;SDS011;23372;52.050;4.810;2023-03-01T01:48:00;29.00;;;16.90;;
37527;SDS011;23372;52.050;4.810;2023-03-01T01:50:35;32.73;;;18.70;;
37527;SDS011;23372;52.050;4.810;2023-03-01T01:53:10;37.50;;;18.87;;
37527;SDS011;23372;52.050;4.810;2023-03-01T01:55:41;30.87;;;18.47;;
37527;SDS011;23372;52.050;4.810;2023-03-01T01:58:10;34.07;;;18.30;;
37527;SDS011;23372;52.050;4.810;2023-03-01T02:00:38;36.40;;;18.87;;
37527;SDS011;23372;52.050;4.810;2023-03-01T02:03:06;32.40;;;18.00;;
37527;SDS011;23372;52.050;4.810;2023-03-01T02:05:42;39.07;;;18.97;;
37527;SDS011;23372;52.050;4.810;2023-03-01T02:08:10;31.80;;;17.83;;
37527;SDS011;23372;52.050;4.810;2023-03-01T02:10:38;32.27;;;18.07;;
37527;SDS011;23372;52.050;4.810;2023-03-01T02:13:04;32.30;;;18.77;;
37527;SDS011;23372;52.050;4.810;2023-03-01T02:15:33;35.60;;;20.03;;
37527;SDS011;23372;52.050;4.810;2023-03-01T02:18:00;34.17;;;18.77;;
37527;SDS011;23372;52.050;4.810;2023-03-01T02:20:31;36.03;;;18.50;;
37527;SDS011;23372;52.050;4.810;2023-03-01T02:23:03;36.43;;;20.67;;
37527;SDS011;23372;52.050;4.810;2023-03-01T02:25:36;33.10;;;18.03;;
37527;SDS011;23372;52.050;4.810;2023-03-01T02:30:40;31.13;;;18.17;;
37527;SDS011;23372;52.050;4.810;2023-03-01T02:33:27;37.13;;;19.80;;
37527;SDS011;23372;52.050;4.810;2023-03-01T02:35:53;33.03;;;18.27;;
37527;SDS011;23372;52.050;4.810;2023-03-01T02:38:20;32.63;;;19.43;;
37527;SDS011;23372;52.050;4.810;2023-03-01T02:40:48;38.77;;;20.07;;
37527;SDS011;23372;52.050;4.810;2023-03-01T02:43:16;33.33;;;18.43;;
37527;SDS011;23372;52.050;4.810;2023-03-01T02:45:48;35.50;;;19.50;;
37527;SDS011;23372;52.050;4.810;2023-03-01T02:48:19;36.63;;;19.60;;
37527;SDS011;23372;52.050;4.810;2023-03-01T02:54:05;37.37;;;18.60;;
37527;SDS011;23372;52.050;4.810;2023-03-01T02:56:41;31.87;;;18.17;;
37527;SDS011;23372;52.050;4.810;2023-03-01T02:59:09;33.97;;;18.43;;
37527;SDS011;23372;52.050;4.810;2023-03-01T03:01:35;37.03;;;18.77;;
37527;SDS011;23372;52.050;4.810;2023-03-01T03:04:04;34.37;;;19.20;;
37527;SDS011;23372;52.050;4.810;2023-03-01T03:06:35;41.60;;;20.67;;
37527;SDS011;23372;52.050;4.810;2023-03-01T03:09:00;36.67;;;19.03;;
37527;SDS011;23372;52.050;4.810;2023-03-01T03:11:27;41.27;;;20.57;;
37527;SDS011;23372;52.050;4.810;2023-03-01T03:13:52;37.83;;;19.87;;
37527;SDS011;23372;52.050;4.810;2023-03-01T03:16:18;32.83;;;18.60;;
37527;SDS011;23372;52.050;4.810;2023-03-01T03:18:45;37.37;;;19.30;;
37527;SDS011;23372;52.050;4.810;2023-03-01T03:21:14;37.27;;;19.87;;
37527;SDS011;23372;52.050;4.810;2023-03-01T03:23:39;33.50;;;18.90;;
37527;SDS011;23372;52.050;4.810;2023-03-01T03:26:05;35.83;;;19.67;;
37527;SDS011;23372;52.050;4.810;2023-03-01T03:28:31;38.57;;;19.23;;
37527;SDS011;23372;52.050;4.810;2023-03-01T03:30:58;39.60;;;21.57;;
37527;SDS011;23372;52.050;4.810;2023-03-01T03:33:28;33.47;;;19.03;;
37527;SDS011;23372;52.050;4.810;2023-03-01T03:35:54;39.67;;;19.93;;
37527;SDS011;23372;52.050;4.810;2023-03-01T03:38:19;37.83;;;20.30;;
37527;SDS011;23372;52.050;4.810;2023-03-01T03:41:08;37.27;;;21.13;;
37527;SDS011;23372;52.050;4.810;2023-03-01T03:43:34;35.40;;;20.23;;
37527;SDS011;23372;52.050;4.810;2023-03-01T03:46:01;34.83;;;18.93;;
37527;SDS011;23372;52.050;4.810;2023-03-01T03:48:30;35.53;;;20.33;;
37527;SDS011;23372;52.050;4.810;2023-03-01T03:51:00;32.97;;;18.57;;
37527;SDS011;23372;52.050;4.810;2023-03-01T03:53:26;33.93;;;17.77;;
37527;SDS011;23372;52.050;4.810;2023-03-01T03:55:54;31.87;;;17.73;;
37527;SDS011;23372;52.050;4.810;2023-03-01T03:58:20;30.67;;;16.53;;
37527;SDS011;23372;52.050;4.810;2023-03-01T04:00:51;28.83;;;16.70;;
37527;SDS011;23372;52.050;4.810;2023-03-01T04:03:19;28.53;;;16.27;;
37527;SDS011;23372;52.050;4.810;2023-03-01T04:05:45;30.10;;;16.20;;
37527;SDS011;23372;52.050;4.810;2023-03-01T04:08:11;31.30;;;18.43;;
37527;SDS011;23372;52.050;4.810;2023-03-01T04:10:38;32.50;;;17.77;;
37527;SDS011;23372;52.050;4.810;2023-03-01T04:13:06;35.30;;;19.07;;
37527;SDS011;23372;52.050;4.810;2023-03-01T04:15:33;34.20;;;18.37;;
37527;SDS011;23372;52.050;4.810;2023-03-01T04:18:00;34.73;;;18.43;;
37527;SDS011;23372;52.050;4.810;2023-03-01T04:20:27;33.20;;;16.47;;
37527;SDS011;23372;52.050;4.810;2023-03-01T04:22:59;34.50;;;17.50;;
37527;SDS011;23372;52.050;4.810;2023-03-01T04:25:59;29.67;;;15.83;;
37527;SDS011;23372;52.050;4.810;2023-03-01T04:28:25;30.00;;;16.17;;
37527;SDS011;23372;52.050;4.810;2023-03-01T04:30:52;32.20;;;16.77;;
37527;SDS011;23372;52.050;4.810;2023-03-01T04:33:19;28.23;;;16.27;;
37527;SDS011;23372;52.050;4.810;2023-03-01T04:35:45;30.13;;;16.67;;
37527;SDS011;23372;52.050;4.810;2023-03-01T04:38:11;24.50;;;14.07;;
37527;SDS011;23372;52.050;4.810;2023-03-01T04:40:36;29.60;;;14.23;;
37527;SDS011;23372;52.050;4.810;2023-03-01T04:43:03;24.43;;;13.30;;
37527;SDS011;23372;52.050;4.810;2023-03-01T04:45:29;24.37;;;13.97;;
37527;SDS011;23372;52.050;4.810;2023-03-01T04:47:54;23.30;;;14.07;;
37527;SDS011;23372;52.050;4.810;2023-03-01T04:50:23;23.87;;;14.30;;
37527;SDS011;23372;52.050;4.810;2023-03-01T04:52:50;27.63;;;14.73;;
37527;SDS011;23372;52.050;4.810;2023-03-01T04:55:16;24.27;;;13.73;;
37527;SDS011;23372;52.050;4.810;2023-03-01T04:57:41;26.23;;;14.63;;
37527;SDS011;23372;52.050;4.810;2023-03-01T05:00:09;27.93;;;14.10;;
37527;SDS011;23372;52.050;4.810;2023-03-01T05:02:49;24.23;;;12.80;;
37527;SDS011;23372;52.050;4.810;2023-03-01T05:05:19;24.67;;;13.93;;
37527;SDS011;23372;52.050;4.810;2023-03-01T05:07:46;31.47;;;14.80;;
37527;SDS011;23372;52.050;4.810;2023-03-01T05:10:12;29.47;;;15.63;;
37527;SDS011;23372;52.050;4.810;2023-03-01T05:12:37;26.23;;;14.87;;
37527;SDS011;23372;52.050;4.810;2023-03-01T05:15:03;26.53;;;13.63;;
37527;SDS011;23372;52.050;4.810;2023-03-01T05:17:32;27.87;;;16.40;;
37527;SDS011;23372;52.050;4.810;2023-03-01T05:19:59;25.77;;;13.77;;
37527;SDS011;23372;52.050;4.810;2023-03-01T05:22:24;28.10;;;14.80;;
37527;SDS011;23372;52.050;4.810;2023-03-01T05:24:50;26.97;;;15.43;;
37527;SDS011;23372;52.050;4.810;2023-03-01T05:27:16;28.40;;;15.83;;
37527;SDS011;23372;52.050;4.810;2023-03-01T05:29:41;27.00;;;15.53;;
37527;SDS011;23372;52.050;4.810;2023-03-01T05:32:07;24.63;;;14.53;;
37527;SDS011;23372;52.050;4.810;2023-03-01T05:34:34;29.10;;;15.93;;
37527;SDS011;23372;52.050;4.810;2023-03-01T05:37:01;31.73;;;15.73;;
37527;SDS011;23372;52.050;4.810;2023-03-01T05:39:28;31.70;;;17.33;;
37527;SDS011;23372;52.050;4.810;2023-03-01T05:41:55;32.00;;;18.33;;
37527;SDS011;23372;52.050;4.810;2023-03-01T05:44:22;34.13;;;17.93;;
37527;SDS011;23372;52.050;4.810;2023-03-01T05:46:48;29.07;;;17.07;;
37527;SDS011;23372;52.050;4.810;2023-03-01T05:49:14;32.00;;;16.70;;
37527;SDS011;23372;52.050;4.810;2023-03-01T05:51:41;28.03;;;16.87;;
37527;SDS011;23372;52.050;4.810;2023-03-01T05:54:07;30.77;;;17.10;;
37527;SDS011;23372;52.050;4.810;2023-03-01T05:56:34;30.60;;;17.80;;
37527;SDS011;23372;52.050;4.810;2023-03-01T05:59:00;33.13;;;18.07;;
37527;SDS011;23372;52.050;4.810;2023-03-01T06:01:27;35.20;;;17.03;;
37527;SDS011;23372;52.050;4.810;2023-03-01T06:03:54;32.17;;;17.53;;
37527;SDS011;23372;52.050;4.810;2023-03-01T06:06:21;34.53;;;18.47;;
37527;SDS011;23372;52.050;4.810;2023-03-01T06:08:47;29.67;;;17.37;;
37527;SDS011;23372;52.050;4.810;2023-03-01T06:11:13;33.33;;;18.37;;
37527;SDS011;23372;52.050;4.810;2023-03-01T06:13:38;31.90;;;17.90;;
37527;SDS011;23372;52.050;4.810;2023-03-01T06:16:07;34.53;;;18.50;;
37527;SDS011;23372;52.050;4.810;2023-03-01T06:18:33;35.53;;;18.50;;
37527;SDS011;23372;52.050;4.810;2023-03-01T06:20:58;35.53;;;18.07;;
37527;SDS011;23372;52.050;4.810;2023-03-01T06:23:24;32.50;;;19.07;;
37527;SDS011;23372;52.050;4.810;2023-03-01T06:25:50;32.97;;;18.93;;
37527;SDS011;23372;52.050;4.810;2023-03-01T06:28:16;34.80;;;19.93;;
37527;SDS011;23372;52.050;4.810;2023-03-01T06:30:41;31.83;;;18.03;;
37527;SDS011;23372;52.050;4.810;2023-03-01T06:33:07;31.97;;;17.93;;
37527;SDS011;23372;52.050;4.810;2023-03-01T06:35:33;32.77;;;17.47;;
37527;SDS011;23372;52.050;4.810;2023-03-01T06:37:59;29.37;;;15.93;;
37527;SDS011;23372;52.050;4.810;2023-03-01T06:40:26;35.43;;;16.30;;
37527;SDS011;23372;52.050;4.810;2023-03-01T06:42:51;30.03;;;17.37;;
37527;SDS011;23372;52.050;4.810;2023-03-01T06:45:17;28.77;;;17.10;;
37527;SDS011;23372;52.050;4.810;2023-03-01T06:47:44;30.97;;;17.10;;
37527;SDS011;23372;52.050;4.810;2023-03-01T06:50:10;34.13;;;18.17;;
37527;SDS011;23372;52.050;4.810;2023-03-01T06:52:37;32.93;;;18.33;;
37527;SDS011;23372;52.050;4.810;2023-03-01T06:55:02;29.40;;;15.83;;
37527;SDS011;23372;52.050;4.810;2023-03-01T06:57:29;27.10;;;16.07;;
37527;SDS011;23372;52.050;4.810;2023-03-01T06:59:54;29.00;;;15.90;;
37527;SDS011;23372;52.050;4.810;2023-03-01T07:02:20;30.43;;;16.93;;
37527;SDS011;23372;52.050;4.810;2023-03-01T07:04:45;28.77;;;16.63;;
37527;SDS011;23372;52.050;4.810;2023-03-01T07:07:11;28.07;;;16.73;;
37527;SDS011;23372;52.050;4.810;2023-03-01T07:09:37;30.07;;;16.67;;
37527;SDS011;23372;52.050;4.810;2023-03-01T07:12:02;31.83;;;16.87;;
37527;SDS011;23372;52.050;4.810;2023-03-01T07:14:28;27.40;;;15.77;;
37527;SDS011;23372;52.050;4.810;2023-03-01T07:16:54;26.73;;;15.30;;
37527;SDS011;23372;52.050;4.810;2023-03-01T07:19:20;31.20;;;17.07;;
37527;SDS011;23372;52.050;4.810;2023-03-01T07:21:46;26.17;;;15.10;;
37527;SDS011;23372;52.050;4.810;2023-03-01T07:24:11;30.27;;;17.10;;
37527;SDS011;23372;52.050;4.810;2023-03-01T07:26:37;29.53;;;16.53;;
37527;SDS011;23372;52.050;4.810;2023-03-01T07:29:03;27.20;;;16.27;;
37527;SDS011;23372;52.050;4.810;2023-03-01T07:31:31;28.83;;;15.57;;
37527;SDS011;23372;52.050;4.810;2023-03-01T07:33:57;25.10;;;14.77;;
37527;SDS011;23372;52.050;4.810;2023-03-01T07:36:22;24.93;;;14.10;;
37527;SDS011;23372;52.050;4.810;2023-03-01T07:38:49;24.07;;;14.80;;
37527;SDS011;23372;52.050;4.810;2023-03-01T07:41:15;24.87;;;15.77;;
37527;SDS011;23372;52.050;4.810;2023-03-01T07:43:41;25.43;;;14.47;;
37527;SDS011;23372;52.050;4.810;2023-03-01T07:46:06;23.43;;;15.03;;
37527;SDS011;23372;52.050;4.810;2023-03-01T07:48:32;22.70;;;14.37;;
37527;SDS011;23372;52.050;4.810;2023-03-01T07:50:59;21.47;;;12.87;;
37527;SDS011;23372;52.050;4.810;2023-03-01T07:53:26;23.57;;;14.13;;
37527;SDS011;23372;52.050;4.810;2023-03-01T07:56:08;23.43;;;12.77;;
37527;SDS011;23372;52.050;4.810;2023-03-01T07:58:40;18.73;;;12.27;;
37527;SDS011;23372;52.050;4.810;2023-03-01T08:01:08;19.50;;;11.63;;
37527;SDS011;23372;52.050;4.810;2023-03-01T08:03:35;20.67;;;12.57;;
37527;SDS011;23372;52.050;4.810;2023-03-01T08:06:02;20.23;;;12.43;;
37527;SDS011;23372;52.050;4.810;2023-03-01T08:08:29;17.37;;;11.27;;
37527;SDS011;23372;52.050;4.810;2023-03-01T08:10:56;19.83;;;12.53;;
37527;SDS011;23372;52.050;4.810;2023-03-01T08:13:23;18.30;;;11.63;;
37527;SDS011;23372;52.050;4.810;2023-03-01T08:15:49;18.30;;;11.47;;
37527;SDS011;23372;52.050;4.810;2023-03-01T08:18:15;17.47;;;11.00;;
37527;SDS011;23372;52.050;4.810;2023-03-01T08:20:41;20.27;;;11.70;;
37527;SDS011;23372;52.050;4.810;2023-03-01T08:23:07;18.47;;;11.00;;
37527;SDS011;23372;52.050;4.810;2023-03-01T08:25:33;18.20;;;10.63;;
37527;SDS011;23372;52.050;4.810;2023-03-01T08:27:58;17.00;;;11.03;;
37527;SDS011;23372;52.050;4.810;2023-03-01T08:30:24;20.60;;;11.07;;
37527;SDS011;23372;52.050;4.810;2023-03-01T08:32:50;21.27;;;12.07;;
37527;SDS011;23372;52.050;4.810;2023-03-01T08:35:16;16.60;;;10.47;;
37527;SDS011;23372;52.050;4.810;2023-03-01T08:37:42;16.70;;;9.10;;
37527;SDS011;23372;52.050;4.810;2023-03-01T08:40:08;16.70;;;10.03;;
37527;SDS011;23372;52.050;4.810;2023-03-01T08:42:35;15.33;;;9.20;;
37527;SDS011;23372;52.050;4.810;2023-03-01T08:45:01;18.20;;;9.50;;
37527;SDS011;23372;52.050;4.810;2023-03-01T08:47:31;13.17;;;8.60;;
37527;SDS011;23372;52.050;4.810;2023-03-01T08:49:58;18.47;;;9.77;;
37527;SDS011;23372;52.050;4.810;2023-03-01T08:52:24;13.93;;;8.70;;
37527;SDS011;23372;52.050;4.810;2023-03-01T08:54:50;14.20;;;9.27;;
37527;SDS011;23372;52.050;4.810;2023-03-01T08:57:16;13.87;;;8.83;;
37527;SDS011;23372;52.050;4.810;2023-03-01T08:59:42;12.77;;;7.70;;
37527;SDS011;23372;52.050;4.810;2023-03-01T09:02:12;14.10;;;7.23;;
37527;SDS011;23372;52.050;4.810;2023-03-01T09:04:39;12.43;;;7.43;;
37527;SDS011;23372;52.050;4.810;2023-03-01T09:07:05;10.97;;;6.90;;
37527;SDS011;23372;52.050;4.810;2023-03-01T09:09:31;12.63;;;7.53;;
37527;SDS011;23372;52.050;4.810;2023-03-01T09:11:56;12.03;;;7.53;;
37527;SDS011;23372;52.050;4.810;2023-03-01T09:14:22;14.13;;;8.33;;
37527;SDS011;23372;52.050;4.810;2023-03-01T09:16:48;13.23;;;7.57;;
37527;SDS011;23372;52.050;4.810;2023-03-01T09:19:14;11.90;;;8.40;;
37527;SDS011;23372;52.050;4.810;2023-03-01T09:21:40;12.77;;;7.83;;
37527;SDS011;23372;52.050;4.810;2023-03-01T09:24:06;12.77;;;7.80;;
37527;SDS011;23372;52.050;4.810;2023-03-01T09:26:38;14.30;;;7.73;;
37527;SDS011;23372;52.050;4.810;2023-03-01T09:29:04;12.23;;;8.07;;
37527;SDS011;23372;52.050;4.810;2023-03-01T09:31:29;12.87;;;7.23;;
37527;SDS011;23372;52.050;4.810;2023-03-01T09:33:55;15.80;;;6.27;;
37527;SDS011;23372;52.050;4.810;2023-03-01T09:36:21;11.87;;;6.70;;
37527;SDS011;23372;52.050;4.810;2023-03-01T09:38:50;11.17;;;6.00;;
37527;SDS011;23372;52.050;4.810;2023-03-01T09:43:56;10.37;;;6.20;;
37527;SDS011;23372;52.050;4.810;2023-03-01T09:46:44;8.57;;;5.57;;
37527;SDS011;23372;52.050;4.810;2023-03-01T09:49:12;9.73;;;5.37;;
37527;SDS011;23372;52.050;4.810;2023-03-01T09:51:42;11.13;;;5.90;;
37527;SDS011;23372;52.050;4.810;2023-03-01T09:54:12;9.03;;;5.77;;
37527;SDS011;23372;52.050;4.810;2023-03-01T09:56:46;9.43;;;6.50;;
37527;SDS011;23372;52.050;4.810;2023-03-01T09:59:35;9.27;;;6.20;;
37527;SDS011;23372;52.050;4.810;2023-03-01T10:04:52;10.37;;;6.37;;
37527;SDS011;23372;52.050;4.810;2023-03-01T10:07:27;10.60;;;6.83;;
37527;SDS011;23372;52.050;4.810;2023-03-01T10:09:54;10.93;;;6.73;;
37527;SDS011;23372;52.050;4.810;2023-03-01T10:12:25;15.27;;;7.10;;
37527;SDS011;23372;52.050;4.810;2023-03-01T10:17:46;13.03;;;6.60;;
37527;SDS011;23372;52.050;4.810;2023-03-01T10:20:26;12.83;;;7.63;;
37527;SDS011;23372;52.050;4.810;2023-03-01T10:23:08;11.40;;;6.50;;
37527;SDS011;23372;52.050;4.810;2023-03-01T10:28:27;11.90;;;6.50;;
37527;SDS011;23372;52.050;4.810;2023-03-01T10:30:53;10.17;;;6.60;;
37527;SDS011;23372;52.050;4.810;2023-03-01T10:33:37;14.20;;;7.03;;
37527;SDS011;23372;52.050;4.810;2023-03-01T10:36:04;10.33;;;6.03;;
37527;SDS011;23372;52.050;4.810;2023-03-01T10:38:31;11.80;;;7.10;;
37527;SDS011;23372;52.050;4.810;2023-03-01T10:41:17;9.70;;;6.73;;
37527;SDS011;23372;52.050;4.810;2023-03-01T10:46:31;10.43;;;6.67;;
37527;SDS011;23372;52.050;4.810;2023-03-01T10:49:20;11.97;;;7.27;;
37527;SDS011;23372;52.050;4.810;2023-03-01T10:51:49;9.67;;;6.53;;
37527;SDS011;23372;52.050;4.810;2023-03-01T10:54:20;12.50;;;6.70;;
37527;SDS011;23372;52.050;4.810;2023-03-01T10:57:00;13.30;;;6.43;;
37527;SDS011;23372;52.050;4.810;2023-03-01T10:59:29;7.03;;;4.60;;
37527;SDS011;23372;52.050;4.810;2023-03-01T11:04:37;8.27;;;5.10;;
37527;SDS011;23372;52.050;4.810;2023-03-01T11:07:03;8.23;;;5.23;;
37527;SDS011;23372;52.050;4.810;2023-03-01T11:09:32;8.20;;;4.97;;
37527;SDS011;23372;52.050;4.810;2023-03-01T11:12:03;9.20;;;5.13;;
37527;SDS011;23372;52.050;4.810;2023-03-01T11:14:45;8.50;;;5.27;;
37527;SDS011;23372;52.050;4.810;2023-03-01T11:17:18;14.67;;;5.83;;
37527;SDS011;23372;52.050;4.810;2023-03-01T11:20:00;11.50;;;5.73;;
37527;SDS011;23372;52.050;4.810;2023-03-01T11:22:34;10.03;;;5.27;;
37527;SDS011;23372;52.050;4.810;2023-03-01T11:25:00;10.43;;;5.13;;
37527;SDS011;23372;52.050;4.810;2023-03-01T11:27:45;8.40;;;4.40;;
37527;SDS011;23372;52.050;4.810;2023-03-01T11:30:55;12.13;;;5.07;;
37527;SDS011;23372;52.050;4.810;2023-03-01T11:35:34;7.53;;;4.10;;
37527;SDS011;23372;52.050;4.810;2023-03-01T11:38:22;9.57;;;4.70;;
37527;SDS011;23372;52.050;4.810;2023-03-01T11:40:51;9.70;;;4.47;;
37527;SDS011;23372;52.050;4.810;2023-03-01T11:43:26;7.20;;;4.43;;
37527;SDS011;23372;52.050;4.810;2023-03-01T11:46:21;7.83;;;4.50;;
37527;SDS011;23372;52.050;4.810;2023-03-01T11:49:00;8.73;;;5.00;;
37527;SDS011;23372;52.050;4.810;2023-03-01T11:57:04;8.40;;;4.63;;
37527;SDS011;23372;52.050;4.810;2023-03-01T12:05:26;8.13;;;4.93;;
37527;SDS011;23372;52.050;4.810;2023-03-01T12:10:38;9.13;;;4.87;;
37527;SDS011;23372;52.050;4.810;2023-03-01T12:19:06;7.73;;;4.70;;
37527;SDS011;23372;52.050;4.810;2023-03-01T12:29:54;10.90;;;4.97;;
37527;SDS011;23372;52.050;4.810;2023-03-01T12:32:52;9.93;;;4.80;;
37527;SDS011;23372;52.050;4.810;2023-03-01T12:38:14;9.20;;;4.50;;
37527;SDS011;23372;52.050;4.810;2023-03-01T12:46:06;8.13;;;4.43;;
37527;SDS011;23372;52.050;4.810;2023-03-01T12:48:46;6.57;;;4.60;;
37527;SDS011;23372;52.050;4.810;2023-03-01T12:51:24;7.63;;;4.73;;
37527;SDS011;23372;52.050;4.810;2023-03-01T12:53:53;9.73;;;5.20;;
37527;SDS011;23372;52.050;4.810;2023-03-01T12:56:21;6.80;;;4.37;;
37527;SDS011;23372;52.050;4.810;2023-03-01T13:08:08;8.23;;;4.70;;
37527;SDS011;23372;52.050;4.810;2023-03-01T13:10:49;6.53;;;4.07;;
37527;SDS011;23372;52.050;4.810;2023-03-01T13:13:21;10.87;;;5.33;;
37527;SDS011;23372;52.050;4.810;2023-03-01T13:15:48;8.83;;;4.17;;
37527;SDS011;23372;52.050;4.810;2023-03-01T13:28:53;9.43;;;4.97;;
37527;SDS011;23372;52.050;4.810;2023-03-01T13:33:53;8.93;;;4.50;;
37527;SDS011;23372;52.050;4.810;2023-03-01T13:44:12;9.00;;;4.87;;
37527;SDS011;23372;52.050;4.810;2023-03-01T13:46:42;10.77;;;5.47;;
37527;SDS011;23372;52.050;4.810;2023-03-01T13:49:11;7.07;;;3.30;;
37527;SDS011;23372;52.050;4.810;2023-03-01T13:51:41;7.50;;;3.40;;
37527;SDS011;23372;52.050;4.810;2023-03-01T13:54:09;7.67;;;4.27;;
37527;SDS011;23372;52.050;4.810;2023-03-01T13:56:37;6.27;;;3.70;;
37527;SDS011;23372;52.050;4.810;2023-03-01T13:59:12;10.97;;;4.77;;
37527;SDS011;23372;52.050;4.810;2023-03-01T14:01:42;7.20;;;4.33;;
37527;SDS011;23372;52.050;4.810;2023-03-01T14:06:47;6.00;;;3.17;;
37527;SDS011;23372;52.050;4.810;2023-03-01T14:09:17;7.03;;;4.27;;
37527;SDS011;23372;52.050;4.810;2023-03-01T14:20:32;5.90;;;3.63;;
37527;SDS011;23372;52.050;4.810;2023-03-01T14:23:08;8.93;;;4.40;;
37527;SDS011;23372;52.050;4.810;2023-03-01T14:25:37;10.33;;;5.77;;
37527;SDS011;23372;52.050;4.810;2023-03-01T14:28:15;8.83;;;4.50;;
37527;SDS011;23372;52.050;4.810;2023-03-01T14:30:42;7.53;;;4.10;;
37527;SDS011;23372;52.050;4.810;2023-03-01T14:36:03;7.23;;;4.13;;
37527;SDS011;23372;52.050;4.810;2023-03-01T14:41:08;9.20;;;4.40;;
37527;SDS011;23372;52.050;4.810;2023-03-01T14:43:37;6.80;;;4.17;;
37527;SDS011;23372;52.050;4.810;2023-03-01T14:46:05;6.50;;;4.03;;
37527;SDS011;23372;52.050;4.810;2023-03-01T14:48:31;8.57;;;4.40;;
37527;SDS011;23372;52.050;4.810;2023-03-01T14:50:57;6.50;;;4.20;;
37527;SDS011;23372;52.050;4.810;2023-03-01T14:53:25;8.17;;;4.10;;
37527;SDS011;23372;52.050;4.810;2023-03-01T14:55:59;8.00;;;4.20;;
37527;SDS011;23372;52.050;4.810;2023-03-01T14:58:29;9.63;;;4.00;;
37527;SDS011;23372;52.050;4.810;2023-03-01T15:00:59;7.20;;;4.33;;
37527;SDS011;23372;52.050;4.810;2023-03-01T15:03:31;5.97;;;3.83;;
37527;SDS011;23372;52.050;4.810;2023-03-01T15:06:03;8.20;;;4.40;;
37527;SDS011;23372;52.050;4.810;2023-03-01T15:08:30;9.63;;;4.43;;
37527;SDS011;23372;52.050;4.810;2023-03-01T15:11:16;5.67;;;3.77;;
37527;SDS011;23372;52.050;4.810;2023-03-01T15:13:49;7.17;;;4.50;;
37527;SDS011;23372;52.050;4.810;2023-03-01T15:16:20;4.90;;;3.30;;
37527;SDS011;23372;52.050;4.810;2023-03-01T15:18:59;7.90;;;3.83;;
37527;SDS011;23372;52.050;4.810;2023-03-01T15:21:37;6.53;;;3.70;;
37527;SDS011;23372;52.050;4.810;2023-03-01T15:26:44;10.57;;;4.37;;
37527;SDS011;23372;52.050;4.810;2023-03-01T15:29:19;7.27;;;4.30;;
37527;SDS011;23372;52.050;4.810;2023-03-01T15:34:32;7.67;;;4.63;;
37527;SDS011;23372;52.050;4.810;2023-03-01T15:36:59;8.77;;;4.30;;
37527;SDS011;23372;52.050;4.810;2023-03-01T15:42:13;7.67;;;3.93;;
37527;SDS011;23372;52.050;4.810;2023-03-01T15:45:21;6.37;;;3.90;;
37527;SDS011;23372;52.050;4.810;2023-03-01T15:47:50;11.93;;;4.40;;
37527;SDS011;23372;52.050;4.810;2023-03-01T15:52:53;7.97;;;3.57;;
37527;SDS011;23372;52.050;4.810;2023-03-01T15:58:00;7.10;;;4.17;;
37527;SDS011;23372;52.050;4.810;2023-03-01T16:00:50;8.80;;;4.20;;
37527;SDS011;23372;52.050;4.810;2023-03-01T16:03:20;7.63;;;4.20;;
37527;SDS011;23372;52.050;4.810;2023-03-01T16:05:47;6.63;;;3.90;;
37527;SDS011;23372;52.050;4.810;2023-03-01T16:08:14;8.40;;;5.43;;
37527;SDS011;23372;52.050;4.810;2023-03-01T16:10:40;8.97;;;4.50;;
37527;SDS011;23372;52.050;4.810;2023-03-01T16:13:08;8.63;;;4.50;;
37527;SDS011;23372;52.050;4.810;2023-03-01T16:15:37;7.53;;;3.77;;
37527;SDS011;23372;52.050;4.810;2023-03-01T16:18:04;7.43;;;4.50;;
37527;SDS011;23372;52.050;4.810;2023-03-01T16:20:31;9.13;;;4.50;;
37527;SDS011;23372;52.050;4.810;2023-03-01T16:22:57;5.67;;;3.40;;
37527;SDS011;23372;52.050;4.810;2023-03-01T16:25:27;8.53;;;4.40;;
37527;SDS011;23372;52.050;4.810;2023-03-01T16:27:53;7.90;;;4.57;;
37527;SDS011;23372;52.050;4.810;2023-03-01T16:30:21;10.13;;;4.60;;
37527;SDS011;23372;52.050;4.810;2023-03-01T16:32:47;10.07;;;4.37;;
37527;SDS011;23372;52.050;4.810;2023-03-01T16:35:14;7.13;;;4.70;;
37527;SDS011;23372;52.050;4.810;2023-03-01T16:37:42;7.43;;;4.33;;
37527;SDS011;23372;52.050;4.810;2023-03-01T16:42:42;8.70;;;4.80;;
37527;SDS011;23372;52.050;4.810;2023-03-01T16:45:08;7.03;;;4.37;;
37527;SDS011;23372;52.050;4.810;2023-03-01T16:47:34;8.23;;;4.27;;